Time;durP1;ratioP1;P1;durP2;ratioP2;P2;SDS_P1;SDS_P2;PMS_P1;PMS_P2;Temp;Humidity;BMP_temperature;BMP_pressure;BME280_temperature;BME280_humidity;BME280_pressure;Samples;Min_cycle;Max_cycle;Signal;HPM_P1;HPM_P2
2021/12/08 00:00:16;;;;;;;4.40;2.27;;;5.30;99.90;;;;;;5034769;28;20207;-54
2021/12/08 00:02:43;;;;;;;4.77;2.47;;;5.40;99.90;;;;;;5036840;28;20590;-53
2021/12/08 00:05:12;;;;;;;4.23;1.90;;;5.40;99.90;;;;;;5021305;28;20998;-52
2021/12/08 00:07:40;;;;;;;4.40;2.00;;;5.50;99.90;;;;;;5035390;28;20979;-53
2021/12/08 00:10:52;;;;;;;3.87;2.20;;;5.40;99.90;;;;;;5020418;28;20649;-52
2021/12/08 00:13:16;;;;;;;3.10;2.03;;;5.50;99.90;;;;;;5033345;28;20233;-54
2021/12/08 00:15:46;;;;;;;5.90;2.07;;;5.60;99.90;;;;;;5037300;28;20791;-54
2021/12/08 00:18:22;;;;;;;5.73;2.37;;;5.60;99.90;;;;;;5036367;28;20208;-52
2021/12/08 00:20:51;;;;;;;2.20;1.50;;;5.60;99.90;;;;;;5036277;28;20255;-54
2021/12/08 00:23:19;;;;;;;4.80;1.80;;;5.70;99.90;;;;;;5033761;28;20236;-54
2021/12/08 00:25:47;;;;;;;1.93;1.27;;;5.80;99.90;;;;;;5038136;28;20732;-53
2021/12/08 00:28:15;;;;;;;4.80;1.60;;;5.80;99.90;;;;;;5035246;28;20277;-53
2021/12/08 00:30:45;;;;;;;2.07;1.40;;;5.80;99.90;;;;;;5036084;28;20245;-52
2021/12/08 00:33:13;;;;;;;2.57;1.63;;;5.90;99.90;;;;;;5035314;28;20199;-53
2021/12/08 00:35:41;;;;;;;2.30;1.57;;;5.90;99.90;;;;;;5035971;28;20654;-55
2021/12/08 00:38:08;;;;;;;2.33;1.40;;;5.90;99.90;;;;;;5036147;28;20291;-52
2021/12/08 00:40:36;;;;;;;4.60;1.70;;;6.00;99.90;;;;;;5035041;28;20249;-53
2021/12/08 00:43:05;;;;;;;3.77;1.60;;;6.00;99.90;;;;;;5035301;28;20308;-53
2021/12/08 00:45:34;;;;;;;4.27;1.70;;;6.00;99.90;;;;;;5036164;28;20200;-53
2021/12/08 00:48:02;;;;;;;2.53;2.03;;;6.10;99.90;;;;;;5036635;28;20306;-54
2021/12/08 00:50:33;;;;;;;2.37;1.80;;;6.10;99.90;;;;;;5035762;28;20311;-53
2021/12/08 00:53:00;;;;;;;2.90;1.40;;;6.20;99.90;;;;;;5036292;28;20248;-53
2021/12/08 00:55:28;;;;;;;2.33;1.73;;;6.20;99.90;;;;;;5034795;28;20285;-52
2021/12/08 00:57:55;;;;;;;2.37;1.40;;;6.20;99.90;;;;;;5034539;28;20269;-53
2021/12/08 01:00:35;;;;;;;7.30;2.10;;;6.20;99.90;;;;;;5035370;28;20277;-53
2021/12/08 01:03:03;;;;;;;4.23;1.63;;;6.30;99.90;;;;;;5036395;28;20671;-53
2021/12/08 01:05:43;;;;;;;3.10;1.70;;;6.30;99.90;;;;;;5019630;28;20207;-54
2021/12/08 01:08:10;;;;;;;2.37;1.77;;;6.30;99.90;;;;;;5034712;28;20227;-52
2021/12/08 01:10:39;;;;;;;2.10;1.67;;;6.30;99.90;;;;;;5019441;28;20270;-55
2021/12/08 01:13:09;;;;;;;2.90;1.80;;;6.30;99.90;;;;;;5034444;28;20263;-52
2021/12/08 01:15:39;;;;;;;3.43;1.70;;;6.30;99.90;;;;;;5033843;28;20260;-54
2021/12/08 01:18:06;;;;;;;2.13;1.50;;;6.30;99.90;;;;;;5032742;28;20226;-52
2021/12/08 01:20:33;;;;;;;4.90;1.83;;;6.30;99.90;;;;;;5032756;28;20227;-54
2021/12/08 01:23:00;;;;;;;4.83;1.70;;;6.30;99.90;;;;;;5034051;28;20303;-52
2021/12/08 01:25:27;;;;;;;2.43;1.43;;;6.30;99.90;;;;;;5033397;28;20245;-53
2021/12/08 01:27:54;;;;;;;2.97;1.30;;;6.30;99.90;;;;;;5033151;28;20336;-52
2021/12/08 01:30:21;;;;;;;2.17;1.50;;;6.40;99.90;;;;;;5033756;28;20279;-52
2021/12/08 01:32:48;;;;;;;2.23;1.40;;;6.40;99.90;;;;;;5034548;28;20301;-53
2021/12/08 01:35:15;;;;;;;2.07;1.50;;;6.50;99.90;;;;;;5034298;28;20235;-53
2021/12/08 01:37:42;;;;;;;1.57;1.37;;;6.50;99.90;;;;;;5033245;28;20617;-53
2021/12/08 01:40:11;;;;;;;3.07;1.43;;;6.50;99.90;;;;;;5034310;28;20284;-52
2021/12/08 01:42:49;;;;;;;2.27;1.07;;;6.50;99.90;;;;;;5032603;28;20230;-52
2021/12/08 01:48:08;;;;;;;2.50;1.20;;;6.60;99.90;;;;;;5032539;28;20211;-52
2021/12/08 01:50:37;;;;;;;4.17;1.23;;;6.60;99.90;;;;;;5034445;28;20195;-51
2021/12/08 01:53:07;;;;;;;3.43;1.10;;;6.60;99.90;;;;;;5035098;28;21029;-52
2021/12/08 01:55:35;;;;;;;3.07;1.40;;;6.60;99.90;;;;;;5035531;28;20235;-53
2021/12/08 01:58:03;;;;;;;2.17;1.17;;;6.60;99.90;;;;;;5034591;28;20308;-52
2021/12/08 02:00:45;;;;;;;1.80;1.13;;;6.60;99.90;;;;;;5033532;28;20291;-53
2021/12/08 02:03:13;;;;;;;2.50;1.07;;;6.60;99.90;;;;;;5026801;28;20343;-52
2021/12/08 02:05:41;;;;;;;3.70;1.43;;;6.60;99.90;;;;;;5024843;28;20257;-54
2021/12/08 02:08:08;;;;;;;4.40;1.27;;;6.60;99.90;;;;;;5034701;28;20285;-53
2021/12/08 02:10:37;;;;;;;2.77;1.20;;;6.60;99.90;;;;;;5033500;28;20213;-52
2021/12/08 02:13:06;;;;;;;3.07;1.60;;;6.60;99.90;;;;;;5035771;28;20297;-52
2021/12/08 02:15:35;;;;;;;4.93;1.60;;;6.60;99.90;;;;;;5034554;28;20701;-53
2021/12/08 02:18:04;;;;;;;3.97;1.40;;;6.60;99.90;;;;;;5035408;28;20571;-53
2021/12/08 02:20:32;;;;;;;4.20;1.50;;;6.60;99.90;;;;;;5032135;28;20792;-51
2021/12/08 02:22:59;;;;;;;2.20;1.27;;;6.60;99.90;;;;;;5036486;28;20213;-51
2021/12/08 02:25:27;;;;;;;1.57;1.10;;;6.60;99.90;;;;;;5034930;28;20303;-53
2021/12/08 02:27:56;;;;;;;5.13;1.70;;;6.60;99.90;;;;;;5033447;28;20539;-54
2021/12/08 02:46:50;;;;;;;3.17;1.33;;;6.70;99.90;;;;;;5033602;28;20239;-53
2021/12/08 02:49:19;;;;;;;2.37;1.43;;;6.70;99.90;;;;;;5031938;28;20992;-51
2021/12/08 02:51:47;;;;;;;6.60;1.77;;;6.70;99.90;;;;;;5034040;28;20230;-51
2021/12/08 02:54:14;;;;;;;3.50;1.27;;;6.70;99.90;;;;;;5032918;28;20388;-53
2021/12/08 02:56:41;;;;;;;3.40;1.40;;;6.70;99.90;;;;;;5034019;28;20228;-52
2021/12/08 02:59:08;;;;;;;3.27;1.60;;;6.70;99.90;;;;;;5033829;28;20238;-51
2021/12/08 03:01:36;;;;;;;3.57;1.30;;;6.70;99.90;;;;;;5035590;28;20219;-52
2021/12/08 03:04:05;;;;;;;2.17;1.53;;;6.80;99.90;;;;;;5015496;28;20552;-51
2021/12/08 03:06:32;;;;;;;5.53;1.90;;;6.80;99.90;;;;;;5033386;28;20201;-53
2021/12/08 03:09:00;;;;;;;5.90;1.40;;;6.80;99.90;;;;;;5033676;28;20248;-53
2021/12/08 03:11:27;;;;;;;5.87;1.30;;;6.80;99.90;;;;;;5016116;28;20209;-53
2021/12/08 03:14:10;;;;;;;4.73;1.60;;;6.80;99.90;;;;;;5034091;28;20206;-51
2021/12/08 03:16:41;;;;;;;3.50;1.50;;;6.80;99.90;;;;;;5036658;28;20266;-53
2021/12/08 03:19:09;;;;;;;3.43;1.50;;;6.80;99.90;;;;;;5035022;28;20805;-51
2021/12/08 03:21:36;;;;;;;3.73;1.20;;;6.80;99.90;;;;;;5037013;28;20258;-53
2021/12/08 03:26:51;;;;;;;5.77;2.03;;;6.80;99.90;;;;;;5035713;28;20228;-50
2021/12/08 03:29:27;;;;;;;5.77;1.30;;;6.80;99.90;;;;;;5035364;28;20199;-52
2021/12/08 03:32:04;;;;;;;2.30;1.47;;;6.80;99.90;;;;;;5037990;28;20198;-53
2021/12/08 03:34:35;;;;;;;5.10;2.13;;;6.80;99.90;;;;;;5036108;28;20211;-54
2021/12/08 03:37:05;;;;;;;8.10;1.50;;;6.80;99.90;;;;;;5037429;28;20703;-53
2021/12/08 03:39:33;;;;;;;4.00;1.50;;;6.80;99.90;;;;;;5037246;28;20273;-53
2021/12/08 03:42:01;;;;;;;3.77;1.50;;;6.70;99.90;;;;;;5038800;28;20229;-54
2021/12/08 03:44:28;;;;;;;4.33;1.40;;;6.80;99.90;;;;;;5037002;28;20213;-54
2021/12/08 03:47:00;;;;;;;2.57;1.17;;;6.80;99.90;;;;;;5034687;28;20210;-52
2021/12/08 03:49:28;;;;;;;2.37;1.17;;;6.70;99.90;;;;;;5033540;28;20271;-52
2021/12/08 03:52:03;;;;;;;2.83;1.20;;;6.70;99.90;;;;;;5038502;28;20624;-53
2021/12/08 03:54:30;;;;;;;3.37;1.17;;;6.70;99.90;;;;;;5037836;28;20315;-55
2021/12/08 03:56:57;;;;;;;4.67;1.30;;;6.70;99.90;;;;;;5037862;28;20211;-52
2021/12/08 03:59:24;;;;;;;4.93;1.50;;;6.60;99.90;;;;;;5037880;28;20345;-54
2021/12/08 04:01:51;;;;;;;3.87;1.20;;;6.70;99.90;;;;;;5038581;28;20605;-54
2021/12/08 04:04:20;;;;;;;1.50;1.00;;;6.60;99.90;;;;;;5037001;28;20448;-52
2021/12/08 04:06:50;;;;;;;4.73;1.30;;;6.60;99.90;;;;;;5038202;28;20222;-55
2021/12/08 04:09:29;;;;;;;4.83;1.47;;;6.60;99.90;;;;;;5037135;28;20199;-54
2021/12/08 04:11:58;;;;;;;5.80;1.30;;;6.50;99.90;;;;;;5036357;28;20207;-54
2021/12/08 04:14:29;;;;;;;3.43;1.13;;;6.50;99.90;;;;;;5035735;28;20211;-52
2021/12/08 04:17:31;;;;;;;6.97;0.93;;;6.50;99.90;;;;;;5038914;28;20372;-54
2021/12/08 04:20:01;;;;;;;5.87;1.60;;;6.40;99.90;;;;;;5030707;28;20721;-52
2021/12/08 04:22:32;;;;;;;5.20;1.23;;;6.40;99.90;;;;;;5037204;28;20217;-53
2021/12/08 04:25:03;;;;;;;3.57;1.17;;;6.30;99.90;;;;;;5037630;28;20239;-53
2021/12/08 04:27:34;;;;;;;5.13;1.30;;;6.30;99.90;;;;;;5040229;28;20236;-52
2021/12/08 04:30:07;;;;;;;4.20;0.90;;;6.30;99.90;;;;;;5021139;28;20201;-53
2021/12/08 04:32:35;;;;;;;4.07;0.97;;;6.30;99.90;;;;;;5040249;28;20247;-52
2021/12/08 04:35:07;;;;;;;5.23;0.80;;;6.30;99.90;;;;;;5024614;28;20242;-53
2021/12/08 04:37:38;;;;;;;2.40;1.03;;;6.30;99.90;;;;;;5038654;28;20206;-53
2021/12/08 04:40:55;;;;;;;2.63;0.87;;;6.30;99.90;;;;;;5038054;28;20696;-53
2021/12/08 04:46:09;;;;;;;4.00;1.03;;;6.40;99.90;;;;;;5038893;28;20199;-54
2021/12/08 04:48:56;;;;;;;5.43;1.30;;;6.40;99.90;;;;;;5035954;28;20202;-52
2021/12/08 05:02:59;;;;;;;4.97;0.90;;;6.30;99.90;;;;;;5038648;28;20218;-55
2021/12/08 05:08:00;;;;;;;4.30;0.90;;;6.30;99.90;;;;;;5036464;28;20720;-52
2021/12/08 05:10:36;;;;;;;3.97;1.20;;;6.20;99.90;;;;;;5033989;28;20301;-53
2021/12/08 05:13:06;;;;;;;2.23;0.70;;;6.10;99.90;;;;;;5038252;28;20206;-52
2021/12/08 05:15:41;;;;;;;2.50;1.23;;;6.20;99.90;;;;;;5023085;28;20209;-51
2021/12/08 05:18:15;;;;;;;4.10;1.30;;;6.00;99.90;;;;;;5038974;28;20210;-51
2021/12/08 05:21:05;;;;;;;3.50;0.80;;;6.00;99.90;;;;;;5035818;28;20196;-52
2021/12/08 05:23:34;;;;;;;2.60;0.90;;;6.00;99.90;;;;;;5037365;28;20561;-55
2021/12/08 05:26:07;;;;;;;7.63;1.10;;;6.00;99.90;;;;;;5022397;28;20216;-52
2021/12/08 05:28:34;;;;;;;2.67;0.97;;;5.90;99.90;;;;;;5038213;28;20191;-52
2021/12/08 05:31:10;;;;;;;3.77;1.10;;;5.90;99.90;;;;;;5036207;28;20251;-51
2021/12/08 05:33:42;;;;;;;3.20;1.00;;;5.90;99.90;;;;;;5037599;28;20206;-53
2021/12/08 05:36:10;;;;;;;4.37;0.90;;;5.80;99.90;;;;;;5035530;28;20210;-52
2021/12/08 05:38:37;;;;;;;2.97;0.80;;;5.80;99.90;;;;;;5036887;28;20500;-51
2021/12/08 05:41:17;;;;;;;5.20;0.93;;;5.80;99.90;;;;;;5038575;28;20317;-52
2021/12/08 05:43:45;;;;;;;3.67;1.10;;;5.70;99.90;;;;;;5037752;28;20379;-52
2021/12/08 05:46:15;;;;;;;5.73;1.07;;;5.70;99.90;;;;;;5038492;28;20250;-54
2021/12/08 05:48:45;;;;;;;4.40;1.00;;;5.70;99.90;;;;;;5036432;28;20753;-53
2021/12/08 05:51:24;;;;;;;6.93;1.80;;;5.60;99.90;;;;;;5035668;28;20230;-52
2021/12/08 05:53:55;;;;;;;2.37;1.00;;;5.60;99.90;;;;;;5037411;28;20669;-55
2021/12/08 05:56:22;;;;;;;3.87;1.10;;;5.70;99.90;;;;;;5038007;28;21100;-55
2021/12/08 05:58:52;;;;;;;3.93;0.63;;;5.60;99.90;;;;;;5038480;28;20632;-52
2021/12/08 06:01:33;;;;;;;6.03;1.30;;;5.60;99.90;;;;;;5036019;28;20254;-51
2021/12/08 06:04:02;;;;;;;8.93;1.43;;;5.60;99.90;;;;;;5035842;28;20216;-53
2021/12/08 06:06:29;;;;;;;8.50;1.23;;;5.60;99.90;;;;;;5037887;28;20334;-52
2021/12/08 06:08:57;;;;;;;5.57;1.80;;;5.50;99.90;;;;;;5038152;28;20196;-53
2021/12/08 06:11:27;;;;;;;4.63;0.90;;;5.50;99.90;;;;;;5038246;28;20292;-53
2021/12/08 06:13:59;;;;;;;5.27;0.83;;;5.60;99.90;;;;;;5037818;28;20371;-52
2021/12/08 06:16:28;;;;;;;3.70;1.10;;;5.60;99.90;;;;;;5032073;28;20291;-52
2021/12/08 06:18:57;;;;;;;6.93;0.80;;;5.60;99.90;;;;;;5035981;28;20202;-52
2021/12/08 06:21:27;;;;;;;1.57;0.80;;;5.60;99.90;;;;;;5036173;28;20580;-55
2021/12/08 06:23:56;;;;;;;4.63;1.10;;;5.60;99.90;;;;;;5038205;28;20655;-54
2021/12/08 06:26:25;;;;;;;7.07;1.27;;;5.60;99.90;;;;;;5039238;28;20355;-52
2021/12/08 06:28:53;;;;;;;6.77;0.97;;;5.50;99.90;;;;;;5036381;28;20206;-52
2021/12/08 06:31:22;;;;;;;10.90;1.20;;;5.50;99.90;;;;;;5036688;28;20204;-55
2021/12/08 06:33:50;;;;;;;9.63;1.60;;;5.50;99.90;;;;;;5035426;28;20698;-52
2021/12/08 06:36:24;;;;;;;5.37;1.00;;;5.50;99.90;;;;;;5035434;28;20535;-53
2021/12/08 06:38:51;;;;;;;5.87;0.97;;;5.50;99.90;;;;;;5036531;28;20267;-53
2021/12/08 06:41:24;;;;;;;3.50;1.20;;;5.50;99.90;;;;;;5037690;28;20511;-54
2021/12/08 06:43:59;;;;;;;3.10;1.10;;;5.50;99.90;;;;;;5033703;28;20744;-52
2021/12/08 06:46:27;;;;;;;5.00;1.27;;;5.40;99.90;;;;;;5035093;28;20569;-52
2021/12/08 06:48:58;;;;;;;3.80;1.10;;;5.40;99.90;;;;;;5033391;28;20576;-53
2021/12/08 06:51:33;;;;;;;3.97;1.53;;;5.40;99.90;;;;;;5035562;28;20233;-53
2021/12/08 06:54:31;;;;;;;6.67;1.20;;;5.50;99.90;;;;;;5031140;28;20253;-53
2021/12/08 06:57:05;;;;;;;7.37;1.20;;;5.40;99.90;;;;;;5033361;28;20634;-53
2021/12/08 06:59:39;;;;;;;3.30;1.40;;;5.40;99.90;;;;;;5031302;28;20329;-54
2021/12/08 07:02:18;;;;;;;3.13;0.90;;;5.40;99.90;;;;;;5029408;28;20302;-51
2021/12/08 07:05:09;;;;;;;9.57;1.17;;;5.40;99.90;;;;;;5032097;28;20220;-52
2021/12/08 07:07:39;;;;;;;4.47;1.27;;;5.40;99.90;;;;;;5033710;28;20224;-52
2021/12/08 07:10:21;;;;;;;3.33;1.30;;;5.30;99.90;;;;;;5032232;28;20262;-53
2021/12/08 07:12:53;;;;;;;5.80;1.20;;;5.40;99.90;;;;;;5036793;28;20207;-54
2021/12/08 07:15:25;;;;;;;3.13;0.77;;;5.30;99.90;;;;;;5036944;28;20201;-53
2021/12/08 07:17:58;;;;;;;4.97;1.07;;;5.30;99.90;;;;;;5036168;28;20247;-52
2021/12/08 07:20:46;;;;;;;4.33;1.20;;;5.30;99.90;;;;;;5017033;28;20196;-52
2021/12/08 07:23:25;;;;;;;5.90;1.00;;;5.20;99.90;;;;;;5032547;28;20699;-53
2021/12/08 07:25:58;;;;;;;5.07;1.10;;;5.20;99.90;;;;;;5020644;28;20702;-53
2021/12/08 07:28:26;;;;;;;7.03;1.57;;;5.20;99.90;;;;;;5038130;28;20204;-51
2021/12/08 07:31:00;;;;;;;6.63;1.10;;;5.20;99.90;;;;;;5036118;28;20289;-52
2021/12/08 07:33:28;;;;;;;8.17;1.53;;;5.20;99.90;;;;;;5034469;28;20224;-52
2021/12/08 07:35:59;;;;;;;8.90;1.30;;;5.10;99.90;;;;;;5032915;28;20283;-52
2021/12/08 07:38:29;;;;;;;3.27;0.83;;;5.20;99.90;;;;;;5034486;28;20198;-52
2021/12/08 07:41:15;;;;;;;3.87;0.80;;;5.10;99.90;;;;;;5036422;28;20240;-53
2021/12/08 07:43:46;;;;;;;5.80;1.43;;;5.10;99.90;;;;;;5029256;28;20619;-53
2021/12/08 07:46:21;;;;;;;7.87;1.80;;;5.10;99.90;;;;;;5034144;28;20210;-52
2021/12/08 07:48:54;;;;;;;8.30;1.27;;;5.10;99.90;;;;;;5034808;28;20200;-54
2021/12/08 07:51:32;;;;;;;5.80;0.80;;;5.10;99.90;;;;;;5036750;28;20323;-52
2021/12/08 07:54:02;;;;;;;6.83;1.07;;;5.10;99.90;;;;;;5033935;28;20344;-53
2021/12/08 07:56:32;;;;;;;2.23;1.43;;;5.10;99.90;;;;;;5029077;28;21101;-52
2021/12/08 07:59:10;;;;;;;7.60;1.30;;;5.00;99.90;;;;;;5034365;28;21074;-53
2021/12/08 08:01:41;;;;;;;7.73;2.57;;;5.00;99.90;;;;;;5034930;28;20213;-54
2021/12/08 08:04:13;;;;;;;6.50;1.20;;;5.10;99.90;;;;;;5032071;28;20224;-52
2021/12/08 08:06:43;;;;;;;9.23;1.43;;;5.10;99.90;;;;;;5031765;28;20197;-53
2021/12/08 08:09:17;;;;;;;6.23;0.70;;;5.00;99.90;;;;;;5030720;28;20356;-53
2021/12/08 08:11:48;;;;;;;3.07;1.00;;;5.00;99.90;;;;;;5030073;28;20251;-53
2021/12/08 08:14:19;;;;;;;1.63;0.80;;;5.00;99.90;;;;;;5033053;28;20955;-52
2021/12/08 08:16:51;;;;;;;2.40;0.80;;;5.00;99.90;;;;;;5034004;28;20234;-51
2021/12/08 08:19:19;;;;;;;2.57;1.20;;;5.10;99.90;;;;;;5034978;28;20801;-64
2021/12/08 08:21:49;;;;;;;5.73;1.10;;;5.00;99.90;;;;;;5035063;28;20204;-61
2021/12/08 08:24:19;;;;;;;4.30;1.10;;;5.00;99.90;;;;;;5036956;28;20591;-52
2021/12/08 08:26:49;;;;;;;5.07;1.00;;;5.00;99.90;;;;;;5033754;28;20207;-51
2021/12/08 08:29:18;;;;;;;7.80;1.20;;;5.10;99.90;;;;;;5036329;28;21078;-52
2021/12/08 08:31:58;;;;;;;3.53;0.83;;;5.10;99.90;;;;;;5020307;28;20197;-55
2021/12/08 08:34:34;;;;;;;5.00;1.17;;;5.10;99.90;;;;;;5034112;28;20710;-53
2021/12/08 08:37:04;;;;;;;3.73;1.10;;;5.10;99.90;;;;;;5027329;28;20383;-53
2021/12/08 08:39:34;;;;;;;5.53;1.40;;;5.20;99.90;;;;;;5033267;28;20229;-52
2021/12/08 08:42:09;;;;;;;6.70;1.30;;;5.20;99.90;;;;;;5034627;28;20204;-54
2021/12/08 08:44:42;;;;;;;5.57;1.43;;;5.20;99.90;;;;;;5031779;28;20219;-51
2021/12/08 08:47:17;;;;;;;5.43;1.20;;;5.40;99.90;;;;;;5030233;28;20309;-54
2021/12/08 08:49:45;;;;;;;4.93;1.20;;;5.40;99.90;;;;;;5028616;28;20243;-52
2021/12/08 08:52:26;;;;;;;4.90;1.10;;;5.50;99.90;;;;;;5033316;28;20261;-52
2021/12/08 08:54:58;;;;;;;4.57;1.00;;;5.50;99.90;;;;;;5035992;28;20243;-51
2021/12/08 08:57:34;;;;;;;6.60;1.33;;;5.50;99.90;;;;;;5036429;28;20637;-53
2021/12/08 09:00:10;;;;;;;2.50;0.80;;;5.60;99.90;;;;;;5033748;28;20268;-54
2021/12/08 09:02:39;;;;;;;7.00;1.40;;;5.60;99.90;;;;;;5036707;28;20201;-54
2021/12/08 09:05:14;;;;;;;2.73;1.00;;;5.80;99.90;;;;;;5034712;28;20272;-54
2021/12/08 09:08:04;;;;;;;5.13;1.10;;;5.80;99.90;;;;;;5033615;28;20659;-51
2021/12/08 09:10:42;;;;;;;3.47;1.00;;;5.80;99.90;;;;;;5034791;28;20228;-53
2021/12/08 09:13:38;;;;;;;7.30;1.33;;;5.80;99.90;;;;;;5038057;28;20195;-54
2021/12/08 09:16:15;;;;;;;3.83;1.23;;;5.90;99.90;;;;;;5017616;28;20204;-53
2021/12/08 09:19:02;;;;;;;3.53;1.07;;;6.10;99.90;;;;;;5036497;28;21267;-51
2021/12/08 09:21:39;;;;;;;2.03;0.97;;;6.10;99.90;;;;;;5033251;28;20231;-52
2021/12/08 09:24:38;;;;;;;2.50;1.13;;;5.90;99.90;;;;;;5034760;28;20221;-51
2021/12/08 09:27:09;;;;;;;3.37;0.93;;;5.90;99.90;;;;;;5022206;28;20472;-53
2021/12/08 09:29:47;;;;;;;5.37;1.30;;;5.90;99.90;;;;;;5035491;28;20196;-52
2021/12/08 09:32:18;;;;;;;3.77;1.57;;;5.80;99.90;;;;;;5036086;28;20282;-53
2021/12/08 09:34:54;;;;;;;2.80;1.27;;;5.90;99.90;;;;;;5035467;28;20246;-53
2021/12/08 09:37:25;;;;;;;1.27;1.00;;;6.00;99.90;;;;;;5032588;28;20603;-54
2021/12/08 09:40:00;;;;;;;4.83;1.10;;;6.00;99.90;;;;;;5034742;28;20311;-54
2021/12/08 09:42:32;;;;;;;3.03;1.00;;;5.90;99.90;;;;;;5035284;28;20209;-53
2021/12/08 09:45:09;;;;;;;5.10;1.23;;;6.00;99.90;;;;;;5034754;28;20245;-52
2021/12/08 09:47:36;;;;;;;1.27;0.87;;;6.10;99.90;;;;;;5035026;28;20200;-53
2021/12/08 09:50:06;;;;;;;1.80;0.80;;;6.20;99.90;;;;;;5035424;28;20310;-53
2021/12/08 09:52:34;;;;;;;4.77;1.00;;;6.30;99.90;;;;;;5036378;28;20285;-53
2021/12/08 09:55:03;;;;;;;5.07;0.83;;;6.40;99.90;;;;;;5034994;28;20287;-52
2021/12/08 09:57:30;;;;;;;3.97;0.93;;;6.60;99.90;;;;;;5032528;28;20223;-51
2021/12/08 09:59:58;;;;;;;5.30;1.50;;;6.60;99.90;;;;;;5032723;28;20283;-54
2021/12/08 10:02:33;;;;;;;3.53;1.00;;;6.80;99.90;;;;;;5037578;28;20243;-52
2021/12/08 10:05:15;;;;;;;3.43;0.77;;;7.00;99.90;;;;;;5032239;28;20303;-53
2021/12/08 10:07:43;;;;;;;4.67;0.90;;;7.00;99.90;;;;;;5036935;28;20612;-52
2021/12/08 10:10:13;;;;;;;3.60;1.07;;;7.20;99.90;;;;;;5035524;28;20559;-54
2021/12/08 10:12:41;;;;;;;2.30;1.20;;;7.10;99.90;;;;;;5036658;28;20226;-53
2021/12/08 10:15:13;;;;;;;3.30;1.20;;;7.00;99.90;;;;;;5036814;28;20202;-53
2021/12/08 10:17:41;;;;;;;6.27;0.80;;;7.10;99.90;;;;;;5036099;28;20288;-52
2021/12/08 10:20:10;;;;;;;2.83;0.80;;;7.10;99.90;;;;;;5033153;28;20239;-51
2021/12/08 10:22:39;;;;;;;3.50;0.90;;;7.00;99.90;;;;;;5033381;28;20305;-52
2021/12/08 10:25:13;;;;;;;1.57;0.83;;;7.00;99.90;;;;;;5037158;28;20215;-53
2021/12/08 10:28:01;;;;;;;5.23;1.20;;;7.00;99.90;;;;;;5041134;28;20249;-52
2021/12/08 10:30:28;;;;;;;3.83;1.00;;;7.00;99.90;;;;;;5041098;28;20259;-52
2021/12/08 10:32:56;;;;;;;5.30;1.10;;;7.00;99.90;;;;;;5040305;28;20195;-51
2021/12/08 10:35:49;;;;;;;4.13;1.13;;;7.10;99.90;;;;;;5038403;28;20305;-53
2021/12/08 10:38:19;;;;;;;2.70;0.80;;;7.00;99.90;;;;;;5040935;28;20215;-52
2021/12/08 10:40:57;;;;;;;3.40;0.90;;;7.20;99.90;;;;;;5042056;28;20235;-52
2021/12/08 10:43:24;;;;;;;5.97;1.57;;;7.30;99.90;;;;;;5039591;28;20200;-50
2021/12/08 10:46:10;;;;;;;2.90;0.80;;;7.40;99.90;;;;;;5041298;28;20601;-50
2021/12/08 10:48:43;;;;;;;2.47;0.83;;;7.50;99.90;;;;;;5036146;28;20647;-53
2021/12/08 10:54:26;;;;;;;2.90;1.07;;;7.30;99.90;;;;;;5040322;28;20234;-53
2021/12/08 10:56:56;;;;;;;4.53;1.17;;;7.40;99.90;;;;;;5039768;28;20203;-52
2021/12/08 10:59:28;;;;;;;2.73;0.80;;;7.50;99.90;;;;;;5040908;28;20888;-51
2021/12/08 11:02:03;;;;;;;3.70;0.83;;;7.30;99.90;;;;;;5041152;28;20238;-51
2021/12/08 11:04:32;;;;;;;4.10;0.93;;;7.30;99.90;;;;;;5038620;28;20219;-54
2021/12/08 11:07:07;;;;;;;3.77;0.90;;;7.30;99.90;;;;;;5040296;28;20313;-52
2021/12/08 11:09:42;;;;;;;1.70;1.03;;;7.40;99.90;;;;;;5029243;28;20202;-52
2021/12/08 11:12:14;;;;;;;8.43;1.20;;;7.50;99.90;;;;;;5034216;28;20253;-54
2021/12/08 11:14:48;;;;;;;2.27;1.10;;;7.80;99.90;;;;;;5038937;28;20208;-52
2021/12/08 11:17:28;;;;;;;4.13;0.70;;;7.80;99.90;;;;;;5039063;28;20274;-53
2021/12/08 11:20:15;;;;;;;1.43;0.90;;;7.50;99.90;;;;;;5035613;28;20622;-53
2021/12/08 11:22:46;;;;;;;2.83;1.10;;;7.20;99.90;;;;;;5037715;28;20744;-53
2021/12/08 11:25:23;;;;;;;4.83;1.40;;;7.00;99.90;;;;;;5039520;28;20730;-52
2021/12/08 11:27:50;;;;;;;2.60;1.00;;;7.00;99.90;;;;;;5040350;28;21174;-50
2021/12/08 11:30:22;;;;;;;3.67;0.93;;;7.00;99.90;;;;;;5040455;28;20693;-52
2021/12/08 11:32:49;;;;;;;1.53;0.90;;;7.00;99.90;;;;;;5041663;28;20650;-51
2021/12/08 11:35:21;;;;;;;3.37;1.43;;;7.00;99.90;;;;;;5036330;28;20334;-53
2021/12/08 11:37:59;;;;;;;2.70;1.63;;;7.00;99.90;;;;;;5036496;28;20204;-51
2021/12/08 11:40:26;;;;;;;4.80;1.37;;;7.40;99.90;;;;;;5034909;28;20255;-51
2021/12/08 11:42:54;;;;;;;7.30;2.30;;;7.70;99.90;;;;;;5039542;28;20255;-52
2021/12/08 11:45:22;;;;;;;3.53;1.93;;;7.50;99.90;;;;;;5038901;28;20223;-53
2021/12/08 11:47:48;;;;;;;5.23;1.90;;;7.50;99.90;;;;;;5039020;28;20671;-53
2021/12/08 11:50:21;;;;;;;4.83;1.70;;;7.40;99.90;;;;;;5034728;28;20308;-53
2021/12/08 11:52:53;;;;;;;5.10;2.00;;;7.30;99.90;;;;;;5038822;28;20206;-53
2021/12/08 11:55:22;;;;;;;3.67;1.93;;;7.20;99.90;;;;;;5039202;28;20242;-52
2021/12/08 11:57:58;;;;;;;5.20;1.90;;;7.10;99.90;;;;;;5041346;28;20635;-53
2021/12/08 12:00:28;;;;;;;3.47;1.93;;;7.30;99.90;;;;;;5039813;28;20215;-52
2021/12/08 12:03:02;;;;;;;4.10;2.20;;;7.10;99.90;;;;;;5040995;28;20666;-52
2021/12/08 12:05:44;;;;;;;2.43;1.70;;;7.10;99.90;;;;;;5037590;28;20710;-50
2021/12/08 12:08:14;;;;;;;4.23;1.83;;;7.20;99.90;;;;;;5039395;28;20205;-51
2021/12/08 12:10:44;;;;;;;6.37;1.70;;;7.20;99.90;;;;;;5039147;28;20238;-51
2021/12/08 12:13:12;;;;;;;4.23;1.50;;;7.30;99.90;;;;;;5038362;28;20198;-50
2021/12/08 12:15:47;;;;;;;5.43;2.00;;;7.20;99.90;;;;;;5037859;28;21107;-51
2021/12/08 12:18:16;;;;;;;5.67;1.40;;;7.20;99.90;;;;;;5039916;28;20207;-52
2021/12/08 12:20:50;;;;;;;5.30;2.00;;;7.10;99.90;;;;;;5038217;28;20227;-52
2021/12/08 12:23:26;;;;;;;3.30;1.57;;;7.30;99.90;;;;;;5026731;28;20569;-51
2021/12/08 12:26:06;;;;;;;4.67;1.60;;;7.20;99.90;;;;;;5036621;28;20249;-53
2021/12/08 12:28:42;;;;;;;2.17;1.13;;;7.20;99.90;;;;;;5038255;28;20190;-55
2021/12/08 12:31:08;;;;;;;4.30;1.47;;;7.20;99.90;;;;;;5038725;28;20267;-54
2021/12/08 12:33:44;;;;;;;2.23;1.33;;;7.40;99.90;;;;;;5038155;28;20658;-53
2021/12/08 12:36:23;;;;;;;2.27;1.33;;;7.50;99.90;;;;;;5036794;28;20226;-51
2021/12/08 12:38:51;;;;;;;2.63;1.50;;;7.80;99.90;;;;;;5020625;28;20310;-52
2021/12/08 12:41:27;;;;;;;4.57;1.77;;;7.50;99.90;;;;;;5039090;28;20297;-51
2021/12/08 12:44:24;;;;;;;5.67;1.50;;;7.60;99.90;;;;;;5038364;28;20212;-54
2021/12/08 12:47:03;;;;;;;3.97;1.30;;;7.30;99.90;;;;;;5038372;28;20206;-51
2021/12/08 12:49:31;;;;;;;3.43;1.20;;;7.20;99.90;;;;;;5037748;28;20234;-51
2021/12/08 12:52:01;;;;;;;2.30;1.30;;;7.30;99.90;;;;;;5036494;28;20204;-52
2021/12/08 12:54:28;;;;;;;4.23;1.63;;;7.30;99.90;;;;;;5039442;28;20634;-51
2021/12/08 12:56:57;;;;;;;2.83;1.30;;;7.60;99.90;;;;;;5039104;28;20250;-53
2021/12/08 12:59:37;;;;;;;5.50;1.47;;;7.90;99.90;;;;;;5038046;28;20204;-52
2021/12/08 13:02:35;;;;;;;3.43;1.20;;;8.10;99.90;;;;;;5038405;28;20214;-52
2021/12/08 13:05:10;;;;;;;4.27;1.00;;;8.10;99.90;;;;;;5035255;28;20752;-54
2021/12/08 13:07:54;;;;;;;1.60;1.03;;;8.00;99.90;;;;;;5037873;28;20203;-51
2021/12/08 13:10:29;;;;;;;2.80;1.00;;;7.80;99.90;;;;;;5038347;28;20532;-56
2021/12/08 13:13:13;;;;;;;3.57;0.90;;;8.00;99.90;;;;;;5033953;28;20662;-55
2021/12/08 13:15:47;;;;;;;2.47;0.90;;;8.10;99.90;;;;;;5036551;28;20301;-52
2021/12/08 13:18:16;;;;;;;2.70;0.93;;;8.00;99.90;;;;;;5033861;28;20228;-52
2021/12/08 13:20:59;;;;;;;2.17;1.00;;;7.90;99.90;;;;;;5036410;28;20239;-51
2021/12/08 13:23:29;;;;;;;2.40;0.67;;;8.10;99.90;;;;;;5038531;28;20339;-51
2021/12/08 13:26:01;;;;;;;1.90;1.10;;;8.10;99.90;;;;;;5036521;28;21120;-52
2021/12/08 13:31:07;;;;;;;2.00;1.20;;;7.60;99.90;;;;;;5038724;28;20642;-51
2021/12/08 13:33:53;;;;;;;2.13;0.90;;;7.60;99.90;;;;;;5036548;28;20809;-54
2021/12/08 13:36:28;;;;;;;3.17;1.00;;;7.40;99.90;;;;;;5036323;28;20669;-53
2021/12/08 13:38:58;;;;;;;2.13;1.47;;;7.40;99.90;;;;;;5035854;28;20552;-51
2021/12/08 13:41:37;;;;;;;3.53;1.73;;;7.40;99.90;;;;;;5038328;28;20210;-55
2021/12/08 13:44:34;;;;;;;5.30;1.17;;;7.40;99.90;;;;;;5037298;28;20911;-53
2021/12/08 13:47:27;;;;;;;1.63;0.90;;;7.40;99.90;;;;;;5034173;28;20243;-53
2021/12/08 13:49:57;;;;;;;3.37;1.03;;;7.30;99.90;;;;;;5030104;28;20342;-52
2021/12/08 13:52:30;;;;;;;3.33;1.00;;;7.20;99.90;;;;;;5034661;28;20950;-51
2021/12/08 13:55:07;;;;;;;1.63;0.70;;;7.10;99.90;;;;;;5037400;28;20229;-53
2021/12/08 13:57:39;;;;;;;2.57;0.93;;;7.10;99.90;;;;;;5039475;28;20674;-53
2021/12/08 14:00:13;;;;;;;3.23;1.53;;;7.10;99.90;;;;;;5037265;28;20214;-52
2021/12/08 14:02:40;;;;;;;3.57;1.00;;;7.20;99.90;;;;;;5033910;28;20501;-53
2021/12/08 14:05:11;;;;;;;5.43;1.17;;;7.20;99.90;;;;;;5034837;28;20298;-52
2021/12/08 14:07:40;;;;;;;2.20;0.80;;;7.10;99.90;;;;;;5030405;28;20251;-53
2021/12/08 14:10:11;;;;;;;5.00;1.20;;;7.10;99.90;;;;;;5036729;28;20237;-53